sensor_id;sensor_type;location;lat;lon;timestamp;pressure;altitude;pressure_sealevel;temperature;humidity
55610;BME280;41486;52.502;13.486;2023-03-21T00:00:46;101108.94;;;9.37;81.88
55610;BME280;41486;52.502;13.486;2023-03-21T00:03:14;101104.03;;;9.45;81.44
55610;BME280;41486;52.502;13.486;2023-03-21T00:05:43;101106.41;;;9.36;83.00
55610;BME280;41486;52.502;13.486;2023-03-21T00:08:15;101103.22;;;9.30;83.54
55610;BME280;41486;52.502;13.486;2023-03-21T00:10:43;101099.13;;;9.26;84.45
55610;BME280;41486;52.502;13.486;2023-03-21T00:13:11;101097.53;;;9.24;84.35
55610;BME280;41486;52.502;13.486;2023-03-21T00:15:42;101092.28;;;9.24;84.22
55610;BME280;41486;52.502;13.486;2023-03-21T00:18:35;101095.66;;;9.11;85.46
55610;BME280;41486;52.502;13.486;2023-03-21T00:21:09;101094.72;;;9.12;85.93
55610;BME280;41486;52.502;13.486;2023-03-21T00:23:58;101099.78;;;9.15;85.87
55610;BME280;41486;52.502;13.486;2023-03-21T00:26:27;101094.38;;;9.04;86.54
55610;BME280;41486;52.502;13.486;2023-03-21T00:28:55;101090.97;;;9.17;86.38
55610;BME280;41486;52.502;13.486;2023-03-21T00:31:24;101083.56;;;9.09;85.82
55610;BME280;41486;52.502;13.486;2023-03-21T00:33:52;101090.34;;;9.13;85.97
55610;BME280;41486;52.502;13.486;2023-03-21T00:36:22;101085.91;;;9.13;85.92
55610;BME280;41486;52.502;13.486;2023-03-21T00:38:52;101080.66;;;9.13;85.47
55610;BME280;41486;52.502;13.486;2023-03-21T00:41:20;101078.31;;;9.09;86.05
55610;BME280;41486;52.502;13.486;2023-03-21T00:44:06;101073.19;;;9.07;86.54
55610;BME280;41486;52.502;13.486;2023-03-21T00:46:36;101079.63;;;9.16;86.32
55610;BME280;41486;52.502;13.486;2023-03-21T00:49:24;101071.44;;;9.21;86.09
55610;BME280;41486;52.502;13.486;2023-03-21T00:51:52;101070.50;;;9.22;85.41
55610;BME280;41486;52.502;13.486;2023-03-21T00:54:24;101075.00;;;9.20;86.53
55610;BME280;41486;52.502;13.486;2023-03-21T00:56:52;101071.84;;;9.14;86.57
55610;BME280;41486;52.502;13.486;2023-03-21T00:59:21;101072.59;;;9.17;86.28
55610;BME280;41486;52.502;13.486;2023-03-21T01:01:50;101074.44;;;9.29;85.45
55610;BME280;41486;52.502;13.486;2023-03-21T01:04:19;101072.63;;;9.29;85.67
55610;BME280;41486;52.502;13.486;2023-03-21T01:06:53;101063.69;;;9.19;87.53
55610;BME280;41486;52.502;13.486;2023-03-21T01:09:22;101075.59;;;9.25;88.30
55610;BME280;41486;52.502;13.486;2023-03-21T01:11:51;101070.69;;;9.33;86.59
55610;BME280;41486;52.502;13.486;2023-03-21T01:14:21;101066.50;;;9.16;87.92
55610;BME280;41486;52.502;13.486;2023-03-21T01:16:53;101064.31;;;8.95;89.54
55610;BME280;41486;52.502;13.486;2023-03-21T01:19:23;101059.41;;;9.04;89.54
55610;BME280;41486;52.502;13.486;2023-03-21T01:22:12;101062.63;;;9.22;88.29
55610;BME280;41486;52.502;13.486;2023-03-21T01:24:40;101066.25;;;9.06;89.85
55610;BME280;41486;52.502;13.486;2023-03-21T01:27:20;101065.13;;;8.96;92.47
55610;BME280;41486;52.502;13.486;2023-03-21T01:29:48;101066.44;;;8.89;92.46
55610;BME280;41486;52.502;13.486;2023-03-21T01:32:17;101065.03;;;8.97;93.05
55610;BME280;41486;52.502;13.486;2023-03-21T01:34:45;101067.50;;;8.86;93.83
55610;BME280;41486;52.502;13.486;2023-03-21T01:37:13;101057.81;;;8.87;91.68
55610;BME280;41486;52.502;13.486;2023-03-21T01:39:46;101061.97;;;8.91;92.75
55610;BME280;41486;52.502;13.486;2023-03-21T01:42:14;101061.94;;;9.05;90.51
55610;BME280;41486;52.502;13.486;2023-03-21T01:44:55;101067.56;;;8.99;91.24
55610;BME280;41486;52.502;13.486;2023-03-21T01:47:32;101063.84;;;8.74;93.51
55610;BME280;41486;52.502;13.486;2023-03-21T01:50:05;101060.34;;;9.03;91.80
55610;BME280;41486;52.502;13.486;2023-03-21T01:52:54;101057.75;;;8.88;93.70
55610;BME280;41486;52.502;13.486;2023-03-21T01:55:26;101058.31;;;8.79;93.93
55610;BME280;41486;52.502;13.486;2023-03-21T01:57:58;101052.56;;;8.87;92.52
55610;BME280;41486;52.502;13.486;2023-03-21T02:00:40;101054.84;;;8.78;92.87
55610;BME280;41486;52.502;13.486;2023-03-21T02:03:25;101054.41;;;8.72;93.47
55610;BME280;41486;52.502;13.486;2023-03-21T02:06:39;101054.28;;;8.73;93.87
55610;BME280;41486;52.502;13.486;2023-03-21T02:09:22;101052.13;;;8.80;94.61
55610;BME280;41486;52.502;13.486;2023-03-21T02:11:53;101049.44;;;8.52;94.92
55610;BME280;41486;52.502;13.486;2023-03-21T02:14:29;101054.88;;;8.49;96.60
55610;BME280;41486;52.502;13.486;2023-03-21T02:17:14;101049.59;;;8.78;95.51
55610;BME280;41486;52.502;13.486;2023-03-21T02:20:22;101047.00;;;8.49;98.51
55610;BME280;41486;52.502;13.486;2023-03-21T02:23:18;101057.19;;;8.68;95.89
55610;BME280;41486;52.502;13.486;2023-03-21T02:26:13;101053.16;;;8.63;97.52
55610;BME280;41486;52.502;13.486;2023-03-21T02:28:54;101047.25;;;8.88;94.17
55610;BME280;41486;52.502;13.486;2023-03-21T02:31:29;101042.38;;;8.67;95.12
55610;BME280;41486;52.502;13.486;2023-03-21T02:37:21;101052.38;;;8.46;97.64
55610;BME280;41486;52.502;13.486;2023-03-21T02:40:09;101037.69;;;8.44;98.77
55610;BME280;41486;52.502;13.486;2023-03-21T02:42:52;101047.34;;;8.43;98.70
55610;BME280;41486;52.502;13.486;2023-03-21T02:45:37;101047.91;;;8.19;100.00
55610;BME280;41486;52.502;13.486;2023-03-21T02:48:09;101050.69;;;8.31;100.00
55610;BME280;41486;52.502;13.486;2023-03-21T02:50:55;101048.94;;;8.46;99.52
55610;BME280;41486;52.502;13.486;2023-03-21T02:53:30;101048.19;;;8.44;99.47
55610;BME280;41486;52.502;13.486;2023-03-21T02:56:03;101051.41;;;8.49;99.94
55610;BME280;41486;52.502;13.486;2023-03-21T02:58:41;101040.88;;;8.34;100.00
55610;BME280;41486;52.502;13.486;2023-03-21T03:01:10;101043.69;;;8.31;100.00
55610;BME280;41486;52.502;13.486;2023-03-21T03:03:47;101043.78;;;8.44;100.00
55610;BME280;41486;52.502;13.486;2023-03-21T03:06:18;101047.91;;;8.19;100.00
55610;BME280;41486;52.502;13.486;2023-03-21T03:08:58;101052.28;;;8.33;100.00
55610;BME280;41486;52.502;13.486;2023-03-21T03:11:37;101059.22;;;8.34;100.00
55610;BME280;41486;52.502;13.486;2023-03-21T03:14:16;101054.34;;;8.14;100.00
55610;BME280;41486;52.502;13.486;2023-03-21T03:17:16;101056.31;;;8.10;100.00
55610;BME280;41486;52.502;13.486;2023-03-21T03:19:58;101043.59;;;8.33;100.00
55610;BME280;41486;52.502;13.486;2023-03-21T03:22:47;101056.69;;;8.18;100.00
55610;BME280;41486;52.502;13.486;2023-03-21T03:25:23;101054.16;;;8.17;100.00
55610;BME280;41486;52.502;13.486;2023-03-21T03:28:10;101051.19;;;8.37;100.00
55610;BME280;41486;52.502;13.486;2023-03-21T03:30:41;101048.34;;;8.26;100.00
55610;BME280;41486;52.502;13.486;2023-03-21T03:33:32;101055.91;;;8.02;100.00
55610;BME280;41486;52.502;13.486;2023-03-21T03:36:04;101047.19;;;8.01;100.00
55610;BME280;41486;52.502;13.486;2023-03-21T03:38:37;101053.47;;;7.99;100.00
55610;BME280;41486;52.502;13.486;2023-03-21T03:41:10;101059.09;;;8.07;100.00
55610;BME280;41486;52.502;13.486;2023-03-21T03:43:49;101054.72;;;8.22;100.00
55610;BME280;41486;52.502;13.486;2023-03-21T03:46:27;101063.31;;;8.10;100.00
55610;BME280;41486;52.502;13.486;2023-03-21T03:49:00;101061.72;;;8.07;100.00
55610;BME280;41486;52.502;13.486;2023-03-21T03:51:31;101063.81;;;8.31;100.00
55610;BME280;41486;52.502;13.486;2023-03-21T03:54:11;101059.47;;;8.15;100.00
55610;BME280;41486;52.502;13.486;2023-03-21T03:56:43;101059.94;;;7.93;100.00
55610;BME280;41486;52.502;13.486;2023-03-21T03:59:14;101061.31;;;7.99;100.00
55610;BME280;41486;52.502;13.486;2023-03-21T04:02:08;101060.75;;;7.94;100.00
55610;BME280;41486;52.502;13.486;2023-03-21T04:04:36;101054.38;;;7.83;100.00
55610;BME280;41486;52.502;13.486;2023-03-21T04:07:05;101057.56;;;7.58;100.00
55610;BME280;41486;52.502;13.486;2023-03-21T04:09:33;101055.38;;;7.81;100.00
55610;BME280;41486;52.502;13.486;2023-03-21T04:12:12;101048.84;;;7.88;100.00
55610;BME280;41486;52.502;13.486;2023-03-21T04:14:51;101059.41;;;7.72;100.00
55610;BME280;41486;52.502;13.486;2023-03-21T04:17:27;101047.38;;;7.84;100.00
55610;BME280;41486;52.502;13.486;2023-03-21T04:19:55;101055.34;;;7.97;100.00
55610;BME280;41486;52.502;13.486;2023-03-21T04:22:37;101051.28;;;7.77;100.00
55610;BME280;41486;52.502;13.486;2023-03-21T04:25:06;101061.69;;;7.93;100.00
55610;BME280;41486;52.502;13.486;2023-03-21T04:27:36;101056.28;;;7.96;100.00
55610;BME280;41486;52.502;13.486;2023-03-21T04:30:23;101052.09;;;7.77;100.00
55610;BME280;41486;52.502;13.486;2023-03-21T04:32:58;101046.09;;;7.75;100.00
55610;BME280;41486;52.502;13.486;2023-03-21T04:35:29;101047.78;;;7.76;100.00
55610;BME280;41486;52.502;13.486;2023-03-21T04:38:02;101050.06;;;7.82;100.00
55610;BME280;41486;52.502;13.486;2023-03-21T04:40:30;101049.97;;;7.84;100.00
55610;BME280;41486;52.502;13.486;2023-03-21T04:43:00;101047.78;;;7.76;100.00
55610;BME280;41486;52.502;13.486;2023-03-21T04:45:28;101048.06;;;8.02;100.00
55610;BME280;41486;52.502;13.486;2023-03-21T04:47:56;101052.44;;;8.01;100.00
55610;BME280;41486;52.502;13.486;2023-03-21T04:50:25;101058.03;;;7.95;100.00
55610;BME280;41486;52.502;13.486;2023-03-21T04:52:53;101053.03;;;8.07;100.00
55610;BME280;41486;52.502;13.486;2023-03-21T04:55:21;101054.88;;;8.04;100.00
55610;BME280;41486;52.502;13.486;2023-03-21T04:57:52;101051.59;;;8.01;100.00
55610;BME280;41486;52.502;13.486;2023-03-21T05:00:22;101060.13;;;8.04;100.00
55610;BME280;41486;52.502;13.486;2023-03-21T05:02:51;101053.56;;;7.97;100.00
55610;BME280;41486;52.502;13.486;2023-03-21T05:05:20;101058.00;;;8.11;100.00
55610;BME280;41486;52.502;13.486;2023-03-21T05:07:47;101059.47;;;7.70;100.00
55610;BME280;41486;52.502;13.486;2023-03-21T05:10:16;101056.00;;;8.00;100.00
55610;BME280;41486;52.502;13.486;2023-03-21T05:12:44;101050.31;;;8.08;100.00
55610;BME280;41486;52.502;13.486;2023-03-21T05:15:12;101051.78;;;7.98;100.00
55610;BME280;41486;52.502;13.486;2023-03-21T05:17:42;101056.06;;;7.84;100.00
55610;BME280;41486;52.502;13.486;2023-03-21T05:20:10;101050.69;;;7.71;100.00
55610;BME280;41486;52.502;13.486;2023-03-21T05:22:43;101050.78;;;7.70;100.00
55610;BME280;41486;52.502;13.486;2023-03-21T05:25:13;101047.78;;;7.76;100.00
55610;BME280;41486;52.502;13.486;2023-03-21T05:28:07;101042.75;;;7.73;100.00
55610;BME280;41486;52.502;13.486;2023-03-21T05:30:35;101050.66;;;7.87;100.00
55610;BME280;41486;52.502;13.486;2023-03-21T05:33:05;101047.50;;;7.66;100.00
55610;BME280;41486;52.502;13.486;2023-03-21T05:35:33;101053.22;;;7.73;100.00
55610;BME280;41486;52.502;13.486;2023-03-21T05:38:04;101053.13;;;7.74;100.00
55610;BME280;41486;52.502;13.486;2023-03-21T05:40:45;101053.56;;;7.67;100.00
55610;BME280;41486;52.502;13.486;2023-03-21T05:43:13;101053.75;;;7.64;100.00
55610;BME280;41486;52.502;13.486;2023-03-21T05:45:41;101051.47;;;7.57;100.00
55610;BME280;41486;52.502;13.486;2023-03-21T05:48:11;101057.00;;;7.53;100.00
55610;BME280;41486;52.502;13.486;2023-03-21T05:50:57;101056.22;;;7.51;100.00
55610;BME280;41486;52.502;13.486;2023-03-21T05:53:25;101061.53;;;7.49;100.00
55610;BME280;41486;52.502;13.486;2023-03-21T05:55:53;101051.81;;;7.51;100.00
55610;BME280;41486;52.502;13.486;2023-03-21T05:58:38;101054.41;;;7.67;100.00
55610;BME280;41486;52.502;13.486;2023-03-21T06:01:06;101052.38;;;7.72;100.00
55610;BME280;41486;52.502;13.486;2023-03-21T06:03:38;101057.00;;;7.53;100.00
55610;BME280;41486;52.502;13.486;2023-03-21T06:06:12;101059.56;;;7.69;100.00
55610;BME280;41486;52.502;13.486;2023-03-21T06:08:51;101054.28;;;7.85;100.00
55610;BME280;41486;52.502;13.486;2023-03-21T06:11:22;101063.22;;;7.50;100.00
55610;BME280;41486;52.502;13.486;2023-03-21T06:13:57;101062.28;;;7.67;100.00
55610;BME280;41486;52.502;13.486;2023-03-21T06:16:26;101063.22;;;7.66;100.00
55610;BME280;41486;52.502;13.486;2023-03-21T06:18:56;101068.50;;;7.81;100.00
55610;BME280;41486;52.502;13.486;2023-03-21T06:21:41;101068.72;;;7.62;100.00
55610;BME280;41486;52.502;13.486;2023-03-21T06:24:09;101063.72;;;7.57;100.00
55610;BME280;41486;52.502;13.486;2023-03-21T06:26:40;101067.28;;;7.56;100.00
55610;BME280;41486;52.502;13.486;2023-03-21T06:29:09;101061.69;;;7.62;100.00
55610;BME280;41486;52.502;13.486;2023-03-21T06:31:37;101065.19;;;7.77;100.00
55610;BME280;41486;52.502;13.486;2023-03-21T06:34:06;101064.06;;;7.81;100.00
55610;BME280;41486;52.502;13.486;2023-03-21T06:36:36;101063.66;;;7.89;100.00
55610;BME280;41486;52.502;13.486;2023-03-21T06:39:05;101072.22;;;7.77;100.00
55610;BME280;41486;52.502;13.486;2023-03-21T06:41:37;101070.59;;;7.90;100.00
55610;BME280;41486;52.502;13.486;2023-03-21T06:44:06;101067.97;;;7.90;100.00
55610;BME280;41486;52.502;13.486;2023-03-21T06:46:43;101071.81;;;7.99;100.00
55610;BME280;41486;52.502;13.486;2023-03-21T06:49:17;101072.00;;;7.96;100.00
55610;BME280;41486;52.502;13.486;2023-03-21T06:51:45;101072.94;;;7.95;100.00
55610;BME280;41486;52.502;13.486;2023-03-21T06:54:17;101078.44;;;7.90;100.00
55610;BME280;41486;52.502;13.486;2023-03-21T06:56:50;101076.59;;;7.92;100.00
55610;BME280;41486;52.502;13.486;2023-03-21T06:59:25;101081.81;;;7.92;100.00
55610;BME280;41486;52.502;13.486;2023-03-21T07:02:04;101080.16;;;7.75;100.00
55610;BME280;41486;52.502;13.486;2023-03-21T07:04:39;101080.81;;;7.79;100.00
55610;BME280;41486;52.502;13.486;2023-03-21T07:07:13;101072.06;;;7.94;100.00
55610;BME280;41486;52.502;13.486;2023-03-21T07:09:41;101082.25;;;7.84;100.00
55610;BME280;41486;52.502;13.486;2023-03-21T07:12:09;101076.78;;;8.03;100.00
55610;BME280;41486;52.502;13.486;2023-03-21T07:15:05;101084.13;;;7.82;100.00
55610;BME280;41486;52.502;13.486;2023-03-21T07:17:35;101081.22;;;7.87;100.00
55610;BME280;41486;52.502;13.486;2023-03-21T07:20:05;101086.56;;;7.85;100.00
55610;BME280;41486;52.502;13.486;2023-03-21T07:22:34;101081.50;;;7.82;100.00
55610;BME280;41486;52.502;13.486;2023-03-21T07:25:02;101086.16;;;7.77;100.00
55610;BME280;41486;52.502;13.486;2023-03-21T07:27:37;101083.44;;;7.79;100.00
55610;BME280;41486;52.502;13.486;2023-03-21T07:30:09;101088.63;;;7.80;100.00
55610;BME280;41486;52.502;13.486;2023-03-21T07:32:37;101087.13;;;7.90;100.00
55610;BME280;41486;52.502;13.486;2023-03-21T07:35:10;101087.19;;;7.58;100.00
55610;BME280;41486;52.502;13.486;2023-03-21T07:37:39;101089.00;;;7.58;100.00
55610;BME280;41486;52.502;13.486;2023-03-21T07:40:09;101095.56;;;7.65;100.00
55610;BME280;41486;52.502;13.486;2023-03-21T07:42:39;101092.94;;;7.65;100.00
55610;BME280;41486;52.502;13.486;2023-03-21T07:45:13;101096.75;;;7.76;100.00
55610;BME280;41486;52.502;13.486;2023-03-21T07:47:50;101093.19;;;7.77;100.00
55610;BME280;41486;52.502;13.486;2023-03-21T07:50:22;101093.41;;;7.88;100.00
55610;BME280;41486;52.502;13.486;2023-03-21T07:52:50;101092.47;;;7.89;100.00
55610;BME280;41486;52.502;13.486;2023-03-21T07:55:19;101086.56;;;7.85;100.00
55610;BME280;41486;52.502;13.486;2023-03-21T07:57:51;101094.44;;;7.85;100.00
55610;BME280;41486;52.502;13.486;2023-03-21T08:00:20;101091.25;;;7.80;100.00
55610;BME280;41486;52.502;13.486;2023-03-21T08:02:50;101094.16;;;7.90;100.00
55610;BME280;41486;52.502;13.486;2023-03-21T08:05:27;101083.31;;;7.66;100.00
55610;BME280;41486;52.502;13.486;2023-03-21T08:07:59;101085.44;;;7.59;100.00
55610;BME280;41486;52.502;13.486;2023-03-21T08:10:27;101088.81;;;7.61;100.00
55610;BME280;41486;52.502;13.486;2023-03-21T08:12:55;101087.41;;;7.86;100.00
55610;BME280;41486;52.502;13.486;2023-03-21T08:15:37;101087.91;;;7.93;100.00
55610;BME280;41486;52.502;13.486;2023-03-21T08:18:08;101089.50;;;7.95;100.00
55610;BME280;41486;52.502;13.486;2023-03-21T08:20:38;101086.63;;;8.14;100.00
55610;BME280;41486;52.502;13.486;2023-03-21T08:23:06;101086.38;;;8.33;100.00
55610;BME280;41486;52.502;13.486;2023-03-21T08:25:34;101082.81;;;8.20;100.00
55610;BME280;41486;52.502;13.486;2023-03-21T08:28:03;101089.72;;;8.51;100.00
55610;BME280;41486;52.502;13.486;2023-03-21T08:30:31;101090.03;;;8.45;100.00
55610;BME280;41486;52.502;13.486;2023-03-21T08:32:59;101084.34;;;8.39;100.00
55610;BME280;41486;52.502;13.486;2023-03-21T08:35:28;101083.72;;;8.64;100.00
55610;BME280;41486;52.502;13.486;2023-03-21T08:37:58;101088.00;;;8.36;100.00
55610;BME280;41486;52.502;13.486;2023-03-21T08:40:28;101094.44;;;8.45;100.00
55610;BME280;41486;52.502;13.486;2023-03-21T08:42:56;101088.69;;;8.54;100.00
55610;BME280;41486;52.502;13.486;2023-03-21T08:45:25;101092.34;;;8.51;100.00
55610;BME280;41486;52.502;13.486;2023-03-21T08:47:54;101082.22;;;8.60;100.00
55610;BME280;41486;52.502;13.486;2023-03-21T08:50:24;101086.47;;;8.46;100.00
55610;BME280;41486;52.502;13.486;2023-03-21T08:52:58;101090.16;;;8.58;100.00
55610;BME280;41486;52.502;13.486;2023-03-21T08:55:28;101083.47;;;8.38;100.00
55610;BME280;41486;52.502;13.486;2023-03-21T08:57:57;101085.59;;;8.47;100.00
55610;BME280;41486;52.502;13.486;2023-03-21T09:00:25;101085.66;;;8.46;100.00
55610;BME280;41486;52.502;13.486;2023-03-21T09:02:56;101086.47;;;8.46;100.00
55610;BME280;41486;52.502;13.486;2023-03-21T09:05:24;101093.84;;;8.56;100.00
55610;BME280;41486;52.502;13.486;2023-03-21T09:07:54;101093.66;;;8.59;100.00
55610;BME280;41486;52.502;13.486;2023-03-21T09:10:23;101092.63;;;8.61;100.00
55610;BME280;41486;52.502;13.486;2023-03-21T09:12:53;101094.81;;;8.39;100.00
55610;BME280;41486;52.502;13.486;2023-03-21T09:15:24;101093.44;;;8.47;100.00
55610;BME280;41486;52.502;13.486;2023-03-21T09:17:55;101098.47;;;8.36;100.00
55610;BME280;41486;52.502;13.486;2023-03-21T09:20:25;101100.00;;;8.55;100.00
55610;BME280;41486;52.502;13.486;2023-03-21T09:22:58;101099.03;;;8.41;100.00
55610;BME280;41486;52.502;13.486;2023-03-21T09:25:28;101090.91;;;8.75;100.00
55610;BME280;41486;52.502;13.486;2023-03-21T09:27:58;101089.63;;;8.67;100.00
55610;BME280;41486;52.502;13.486;2023-03-21T09:30:26;101087.75;;;8.70;100.00
55610;BME280;41486;52.502;13.486;2023-03-21T09:32:55;101091.56;;;8.78;100.00
55610;BME280;41486;52.502;13.486;2023-03-21T09:35:23;101090.09;;;8.74;100.00
55610;BME280;41486;52.502;13.486;2023-03-21T09:37:53;101084.75;;;8.76;100.00
55610;BME280;41486;52.502;13.486;2023-03-21T09:40:38;101089.41;;;8.99;100.00
55610;BME280;41486;52.502;13.486;2023-03-21T09:43:15;101088.03;;;8.79;100.00
55610;BME280;41486;52.502;13.486;2023-03-21T09:45:51;101082.31;;;8.73;100.00
55610;BME280;41486;52.502;13.486;2023-03-21T09:48:31;101092.13;;;8.98;100.00
55610;BME280;41486;52.502;13.486;2023-03-21T09:51:09;101083.56;;;9.09;100.00
55610;BME280;41486;52.502;13.486;2023-03-21T09:53:43;101085.09;;;9.13;100.00
55610;BME280;41486;52.502;13.486;2023-03-21T09:56:16;101082.59;;;9.24;100.00
55610;BME280;41486;52.502;13.486;2023-03-21T09:58:47;101080.41;;;9.04;100.00
55610;BME280;41486;52.502;13.486;2023-03-21T10:01:20;101087.78;;;9.11;100.00
55610;BME280;41486;52.502;13.486;2023-03-21T10:03:55;101077.88;;;9.29;100.00
55610;BME280;41486;52.502;13.486;2023-03-21T10:06:25;101071.88;;;9.42;100.00
55610;BME280;41486;52.502;13.486;2023-03-21T10:08:58;101068.66;;;9.24;100.00
55610;BME280;41486;52.502;13.486;2023-03-21T10:11:34;101079.56;;;9.03;100.00
55610;BME280;41486;52.502;13.486;2023-03-21T10:14:13;101071.38;;;9.08;100.00
55610;BME280;41486;52.502;13.486;2023-03-21T10:16:45;101069.94;;;9.31;100.00
55610;BME280;41486;52.502;13.486;2023-03-21T10:19:17;101061.53;;;9.11;100.00
55610;BME280;41486;52.502;13.486;2023-03-21T10:21:46;101065.22;;;9.36;100.00
55610;BME280;41486;52.502;13.486;2023-03-21T10:24:32;101060.38;;;9.70;100.00
55610;BME280;41486;52.502;13.486;2023-03-21T10:27:02;101059.00;;;9.65;100.00
55610;BME280;41486;52.502;13.486;2023-03-21T10:29:33;101058.28;;;9.75;100.00
55610;BME280;41486;52.502;13.486;2023-03-21T10:32:06;101059.88;;;9.65;100.00
55610;BME280;41486;52.502;13.486;2023-03-21T10:34:37;101056.50;;;9.63;100.00
55610;BME280;41486;52.502;13.486;2023-03-21T10:37:06;101056.03;;;9.56;100.00
55610;BME280;41486;52.502;13.486;2023-03-21T10:39:37;101053.91;;;9.76;100.00
55610;BME280;41486;52.502;13.486;2023-03-21T10:42:16;101055.72;;;10.01;100.00
55610;BME280;41486;52.502;13.486;2023-03-21T10:44:46;101045.31;;;10.00;100.00
55610;BME280;41486;52.502;13.486;2023-03-21T10:47:19;101047.59;;;10.30;100.00
55610;BME280;41486;52.502;13.486;2023-03-21T10:49:47;101041.00;;;10.50;100.00
55610;BME280;41486;52.502;13.486;2023-03-21T10:52:34;101039.13;;;10.52;100.00
55610;BME280;41486;52.502;13.486;2023-03-21T10:55:07;101036.41;;;10.41;100.00
55610;BME280;41486;52.502;13.486;2023-03-21T10:57:40;101028.88;;;10.35;100.00
55610;BME280;41486;52.502;13.486;2023-03-21T11:00:17;101041.44;;;10.44;100.00
55610;BME280;41486;52.502;13.486;2023-03-21T11:02:48;101034.06;;;10.36;100.00
55610;BME280;41486;52.502;13.486;2023-03-21T11:05:20;101041.84;;;10.25;100.00
55610;BME280;41486;52.502;13.486;2023-03-21T11:07:59;101035.94;;;10.34;100.00
55610;BME280;41486;52.502;13.486;2023-03-21T11:10:31;101039.72;;;10.30;100.00
55610;BME280;41486;52.502;13.486;2023-03-21T11:13:05;101036.06;;;10.33;100.00
55610;BME280;41486;52.502;13.486;2023-03-21T11:15:41;101034.78;;;10.25;100.00
55610;BME280;41486;52.502;13.486;2023-03-21T11:18:17;101037.94;;;10.18;100.00
55610;BME280;41486;52.502;13.486;2023-03-21T11:20:50;101033.50;;;10.31;100.00
55610;BME280;41486;52.502;13.486;2023-03-21T11:23:19;101036.56;;;10.25;100.00
55610;BME280;41486;52.502;13.486;2023-03-21T11:25:48;101022.03;;;10.06;100.00
55610;BME280;41486;52.502;13.486;2023-03-21T11:28:21;101028.38;;;10.30;100.00
55610;BME280;41486;52.502;13.486;2023-03-21T11:30:52;101025.66;;;10.44;100.00
55610;BME280;41486;52.502;13.486;2023-03-21T11:33:22;101021.22;;;10.57;100.00
55610;BME280;41486;52.502;13.486;2023-03-21T11:35:58;101016.19;;;10.41;100.00
55610;BME280;41486;52.502;13.486;2023-03-21T11:38:30;101011.31;;;10.61;100.00
55610;BME280;41486;52.502;13.486;2023-03-21T11:41:01;101010.00;;;10.80;100.00
55610;BME280;41486;52.502;13.486;2023-03-21T11:43:36;101011.22;;;10.87;100.00
55610;BME280;41486;52.502;13.486;2023-03-21T11:46:14;101003.06;;;10.66;100.00
55610;BME280;41486;52.502;13.486;2023-03-21T11:48:45;101003.38;;;10.74;100.00
55610;BME280;41486;52.502;13.486;2023-03-21T11:51:23;101005.50;;;10.69;100.00
55610;BME280;41486;52.502;13.486;2023-03-21T11:54:00;101001.00;;;10.95;100.00
55610;BME280;41486;52.502;13.486;2023-03-21T11:56:33;101000.66;;;10.76;100.00
55610;BME280;41486;52.502;13.486;2023-03-21T11:59:15;100991.94;;;10.99;100.00
55610;BME280;41486;52.502;13.486;2023-03-21T12:01:56;100995.84;;;10.69;100.00
55610;BME280;41486;52.502;13.486;2023-03-21T12:04:37;100987.69;;;10.72;100.00
55610;BME280;41486;52.502;13.486;2023-03-21T12:07:19;100985.34;;;10.81;100.00
55610;BME280;41486;52.502;13.486;2023-03-21T12:09:56;100981.78;;;10.82;100.00
55610;BME280;41486;52.502;13.486;2023-03-21T12:12:37;100976.50;;;11.06;100.00
55610;BME280;41486;52.502;13.486;2023-03-21T12:15:17;100974.28;;;11.13;100.00
55610;BME280;41486;52.502;13.486;2023-03-21T12:17:52;100976.03;;;11.25;100.00
55610;BME280;41486;52.502;13.486;2023-03-21T12:20:38;100969.44;;;11.31;100.00
55610;BME280;41486;52.502;13.486;2023-03-21T12:23:19;100959.06;;;11.41;100.00
55610;BME280;41486;52.502;13.486;2023-03-21T12:26:05;100958.34;;;11.39;100.00
55610;BME280;41486;52.502;13.486;2023-03-21T12:28:46;100959.22;;;11.26;100.00
55610;BME280;41486;52.502;13.486;2023-03-21T12:31:24;100957.59;;;11.36;100.00
55610;BME280;41486;52.502;13.486;2023-03-21T12:34:07;100956.09;;;11.21;100.00
55610;BME280;41486;52.502;13.486;2023-03-21T12:36:55;100959.47;;;11.23;100.00
55610;BME280;41486;52.502;13.486;2023-03-21T12:39:28;100946.72;;;11.41;100.00
55610;BME280;41486;52.502;13.486;2023-03-21T12:42:09;100945.75;;;11.42;100.00
55610;BME280;41486;52.502;13.486;2023-03-21T12:44:51;100944.44;;;11.36;100.00
55610;BME280;41486;52.502;13.486;2023-03-21T12:47:24;100940.84;;;11.38;100.00
55610;BME280;41486;52.502;13.486;2023-03-21T12:49:55;100937.34;;;11.26;100.00
55610;BME280;41486;52.502;13.486;2023-03-21T12:52:26;100936.03;;;11.31;100.00
55610;BME280;41486;52.502;13.486;2023-03-21T12:54:58;100933.81;;;11.49;100.00
55610;BME280;41486;52.502;13.486;2023-03-21T12:57:30;100935.16;;;11.66;100.00
55610;BME280;41486;52.502;13.486;2023-03-21T13:00:04;100928.53;;;11.49;100.00
55610;BME280;41486;52.502;13.486;2023-03-21T13:02:41;100921.63;;;11.71;100.00
55610;BME280;41486;52.502;13.486;2023-03-21T13:05:17;100912.63;;;11.74;100.00
55610;BME280;41486;52.502;13.486;2023-03-21T13:07:50;100922.81;;;11.78;100.00
55610;BME280;41486;52.502;13.486;2023-03-21T13:10:20;100907.00;;;11.78;100.00
55610;BME280;41486;52.502;13.486;2023-03-21T13:13:10;100914.63;;;11.47;100.00
55610;BME280;41486;52.502;13.486;2023-03-21T13:15:51;100906.50;;;11.62;100.00
55610;BME280;41486;52.502;13.486;2023-03-21T13:18:32;100894.91;;;11.64;100.00